Main page
METAR-TAF:

METAR-TAF

Airports :

Laupheim Air Base

Laupheim, Germany

latitude: 48-13N, longitude: 009-55E, elevation: 538 m

Current weather observation

The report was made 48 minutes ago, at 01:20 UTC
Wind 2 kt from the West
Temperature 16°C
Humidity 88%
Pressure 1020 hPa
Visibility: 6000 m

METAR: ETHL 090120Z AUTO 26002KT 6000 // ////// 16/14 Q1020 ///

Time: 04:08 (02:08 UTC)


TAF: missing

Weather observations and forecasts of more than 4000 airports (METAR and TAF reports).

The available stations are represented by yellow and red dots on the map.

Hover mouse over dot to see the name of the station.

Then click to see weather observations and forecasts.

To change the map : click on the green buttons with a black cross to zoom in, on the green button with a dash to zoom out, or on the green arrows for adjacent maps.


METAR-TAF: